sensor_id;sensor_type;location;lat;lon;timestamp;P1;durP1;ratioP1;P2;durP2;ratioP2
7247;SDS011;3665;51.034;13.642;2022-10-31T00:14:41;3.73;;;2.37;;
7247;SDS011;3665;51.034;13.642;2022-10-31T00:19:32;4.27;;;2.53;;
7247;SDS011;3665;51.034;13.642;2022-10-31T00:24:19;4.50;;;2.33;;
7247;SDS011;3665;51.034;13.642;2022-10-31T00:29:08;5.40;;;2.40;;
7247;SDS011;3665;51.034;13.642;2022-10-31T00:33:57;4.40;;;2.13;;
7247;SDS011;3665;51.034;13.642;2022-10-31T00:38:44;4.73;;;2.17;;
7247;SDS011;3665;51.034;13.642;2022-10-31T00:43:31;3.13;;;1.90;;
7247;SDS011;3665;51.034;13.642;2022-10-31T00:48:23;4.90;;;2.50;;
7247;SDS011;3665;51.034;13.642;2022-10-31T00:53:07;4.63;;;2.33;;
7247;SDS011;3665;51.034;13.642;2022-10-31T00:57:56;5.90;;;2.00;;
7247;SDS011;3665;51.034;13.642;2022-10-31T01:02:43;4.53;;;1.70;;
7247;SDS011;3665;51.034;13.642;2022-10-31T01:07:34;4.20;;;2.20;;
7247;SDS011;3665;51.034;13.642;2022-10-31T01:12:28;4.73;;;1.50;;
7247;SDS011;3665;51.034;13.642;2022-10-31T01:17:57;4.40;;;2.20;;
7247;SDS011;3665;51.034;13.642;2022-10-31T01:22:46;4.40;;;2.13;;
7247;SDS011;3665;51.034;13.642;2022-10-31T01:27:33;5.50;;;2.20;;
7247;SDS011;3665;51.034;13.642;2022-10-31T01:32:19;3.20;;;1.90;;
7247;SDS011;3665;51.034;13.642;2022-10-31T01:37:08;7.23;;;2.53;;
7247;SDS011;3665;51.034;13.642;2022-10-31T01:47:47;4.70;;;2.40;;
7247;SDS011;3665;51.034;13.642;2022-10-31T01:52:42;5.33;;;2.10;;
7247;SDS011;3665;51.034;13.642;2022-10-31T01:57:42;8.10;;;2.33;;
7247;SDS011;3665;51.034;13.642;2022-10-31T02:02:37;4.60;;;2.13;;
7247;SDS011;3665;51.034;13.642;2022-10-31T02:07:30;3.73;;;2.20;;
7247;SDS011;3665;51.034;13.642;2022-10-31T02:12:29;4.03;;;1.83;;
7247;SDS011;3665;51.034;13.642;2022-10-31T02:17:33;3.27;;;2.20;;
7247;SDS011;3665;51.034;13.642;2022-10-31T02:29:04;3.83;;;2.13;;
7247;SDS011;3665;51.034;13.642;2022-10-31T02:34:21;5.50;;;2.17;;
7247;SDS011;3665;51.034;13.642;2022-10-31T02:39:11;4.27;;;2.20;;
7247;SDS011;3665;51.034;13.642;2022-10-31T02:44:15;5.43;;;2.00;;
7247;SDS011;3665;51.034;13.642;2022-10-31T02:49:35;3.27;;;2.20;;
7247;SDS011;3665;51.034;13.642;2022-10-31T02:54:52;5.13;;;2.33;;
7247;SDS011;3665;51.034;13.642;2022-10-31T02:59:44;4.13;;;2.40;;
7247;SDS011;3665;51.034;13.642;2022-10-31T03:04:45;5.77;;;2.43;;
7247;SDS011;3665;51.034;13.642;2022-10-31T03:15:55;9.00;;;2.63;;
7247;SDS011;3665;51.034;13.642;2022-10-31T03:27:40;2.70;;;2.20;;
7247;SDS011;3665;51.034;13.642;2022-10-31T03:32:56;4.80;;;2.40;;
7247;SDS011;3665;51.034;13.642;2022-10-31T03:38:24;3.43;;;2.40;;
7247;SDS011;3665;51.034;13.642;2022-10-31T03:43:25;7.47;;;2.30;;
7247;SDS011;3665;51.034;13.642;2022-10-31T03:48:33;3.10;;;2.23;;
7247;SDS011;3665;51.034;13.642;2022-10-31T03:54:35;5.53;;;2.80;;
7247;SDS011;3665;51.034;13.642;2022-10-31T04:00:28;5.33;;;2.43;;
7247;SDS011;3665;51.034;13.642;2022-10-31T04:05:33;4.27;;;2.40;;
7247;SDS011;3665;51.034;13.642;2022-10-31T04:17:00;6.33;;;2.00;;
7247;SDS011;3665;51.034;13.642;2022-10-31T04:27:06;4.13;;;2.13;;
7247;SDS011;3665;51.034;13.642;2022-10-31T04:31:53;5.23;;;2.53;;
7247;SDS011;3665;51.034;13.642;2022-10-31T04:42:03;5.17;;;2.67;;
7247;SDS011;3665;51.034;13.642;2022-10-31T04:46:48;3.67;;;2.60;;
7247;SDS011;3665;51.034;13.642;2022-10-31T04:51:42;8.13;;;3.23;;
7247;SDS011;3665;51.034;13.642;2022-10-31T04:58:02;5.50;;;2.67;;
7247;SDS011;3665;51.034;13.642;2022-10-31T05:02:50;5.70;;;2.67;;
7247;SDS011;3665;51.034;13.642;2022-10-31T05:07:37;5.80;;;2.60;;
7247;SDS011;3665;51.034;13.642;2022-10-31T05:12:24;5.87;;;3.27;;
7247;SDS011;3665;51.034;13.642;2022-10-31T05:18:04;5.57;;;2.43;;
7247;SDS011;3665;51.034;13.642;2022-10-31T05:24:25;5.47;;;3.07;;
7247;SDS011;3665;51.034;13.642;2022-10-31T05:34:51;6.97;;;2.67;;
7247;SDS011;3665;51.034;13.642;2022-10-31T05:46:34;6.37;;;3.00;;
7247;SDS011;3665;51.034;13.642;2022-10-31T06:01:30;7.23;;;3.17;;
7247;SDS011;3665;51.034;13.642;2022-10-31T06:07:10;9.13;;;3.37;;
7247;SDS011;3665;51.034;13.642;2022-10-31T06:11:56;5.70;;;3.27;;
7247;SDS011;3665;51.034;13.642;2022-10-31T06:18:25;3.90;;;2.67;;
7247;SDS011;3665;51.034;13.642;2022-10-31T06:24:10;4.50;;;2.63;;
7247;SDS011;3665;51.034;13.642;2022-10-31T06:42:41;7.00;;;3.20;;
7247;SDS011;3665;51.034;13.642;2022-10-31T06:48:24;3.90;;;2.93;;
7247;SDS011;3665;51.034;13.642;2022-10-31T06:54:40;6.07;;;3.27;;
7247;SDS011;3665;51.034;13.642;2022-10-31T07:00:32;8.07;;;3.27;;
7247;SDS011;3665;51.034;13.642;2022-10-31T07:06:38;5.27;;;3.43;;
7247;SDS011;3665;51.034;13.642;2022-10-31T07:12:51;6.53;;;3.37;;
7247;SDS011;3665;51.034;13.642;2022-10-31T07:24:33;7.23;;;2.63;;
7247;SDS011;3665;51.034;13.642;2022-10-31T07:36:13;4.73;;;3.00;;
7247;SDS011;3665;51.034;13.642;2022-10-31T07:41:53;5.07;;;2.70;;
7247;SDS011;3665;51.034;13.642;2022-10-31T07:47:22;7.07;;;3.33;;
7247;SDS011;3665;51.034;13.642;2022-10-31T07:59:10;7.93;;;3.17;;
7247;SDS011;3665;51.034;13.642;2022-10-31T08:04:25;8.07;;;3.43;;
7247;SDS011;3665;51.034;13.642;2022-10-31T08:21:51;7.10;;;3.20;;
7247;SDS011;3665;51.034;13.642;2022-10-31T08:27:54;6.80;;;3.30;;
7247;SDS011;3665;51.034;13.642;2022-10-31T08:33:37;6.80;;;3.23;;
7247;SDS011;3665;51.034;13.642;2022-10-31T08:52:18;5.73;;;3.43;;
7247;SDS011;3665;51.034;13.642;2022-10-31T08:58:41;7.13;;;3.37;;
7247;SDS011;3665;51.034;13.642;2022-10-31T09:04:58;5.97;;;3.57;;
7247;SDS011;3665;51.034;13.642;2022-10-31T09:10:41;7.97;;;3.73;;
7247;SDS011;3665;51.034;13.642;2022-10-31T09:16:57;6.17;;;3.50;;
7247;SDS011;3665;51.034;13.642;2022-10-31T09:23:22;7.37;;;4.13;;
7247;SDS011;3665;51.034;13.642;2022-10-31T09:28:16;8.77;;;4.80;;
7247;SDS011;3665;51.034;13.642;2022-10-31T09:40:33;9.87;;;5.43;;
7247;SDS011;3665;51.034;13.642;2022-10-31T09:51:05;9.10;;;5.80;;
7247;SDS011;3665;51.034;13.642;2022-10-31T09:56:01;10.43;;;5.60;;
7247;SDS011;3665;51.034;13.642;2022-10-31T10:02:23;7.33;;;5.77;;
7247;SDS011;3665;51.034;13.642;2022-10-31T10:07:28;9.17;;;5.43;;
7247;SDS011;3665;51.034;13.642;2022-10-31T10:19:25;10.00;;;5.83;;
7247;SDS011;3665;51.034;13.642;2022-10-31T10:25:34;10.87;;;5.83;;
7247;SDS011;3665;51.034;13.642;2022-10-31T10:31:23;5.83;;;5.23;;
7247;SDS011;3665;51.034;13.642;2022-10-31T10:36:28;9.87;;;5.50;;
7247;SDS011;3665;51.034;13.642;2022-10-31T10:41:45;5.57;;;4.97;;
7247;SDS011;3665;51.034;13.642;2022-10-31T10:52:29;7.93;;;5.90;;
7247;SDS011;3665;51.034;13.642;2022-10-31T10:58:08;13.97;;;10.93;;
7247;SDS011;3665;51.034;13.642;2022-10-31T11:04:56;9.63;;;5.60;;
7247;SDS011;3665;51.034;13.642;2022-10-31T11:09:15;8.83;;;5.67;;
7247;SDS011;3665;51.034;13.642;2022-10-31T11:14:21;10.37;;;5.83;;
7247;SDS011;3665;51.034;13.642;2022-10-31T11:19:25;9.87;;;5.63;;
7247;SDS011;3665;51.034;13.642;2022-10-31T11:24:58;10.77;;;6.00;;
7247;SDS011;3665;51.034;13.642;2022-10-31T11:52:16;9.40;;;7.10;;
7247;SDS011;3665;51.034;13.642;2022-10-31T12:03:54;7.53;;;5.03;;
7247;SDS011;3665;51.034;13.642;2022-10-31T12:09:02;7.40;;;5.50;;
7247;SDS011;3665;51.034;13.642;2022-10-31T12:14:53;8.83;;;5.37;;
7247;SDS011;3665;51.034;13.642;2022-10-31T12:20:16;10.90;;;5.70;;
7247;SDS011;3665;51.034;13.642;2022-10-31T12:25:50;8.47;;;5.23;;
7247;SDS011;3665;51.034;13.642;2022-10-31T12:31:08;8.53;;;5.83;;
7247;SDS011;3665;51.034;13.642;2022-10-31T12:43:32;11.20;;;6.30;;
7247;SDS011;3665;51.034;13.642;2022-10-31T12:54:55;8.23;;;5.77;;
7247;SDS011;3665;51.034;13.642;2022-10-31T13:00:11;9.90;;;5.17;;
7247;SDS011;3665;51.034;13.642;2022-10-31T13:05:16;7.33;;;5.13;;
7247;SDS011;3665;51.034;13.642;2022-10-31T13:10:36;6.97;;;5.60;;
7247;SDS011;3665;51.034;13.642;2022-10-31T13:16:15;10.37;;;6.43;;
7247;SDS011;3665;51.034;13.642;2022-10-31T13:22:53;10.93;;;5.80;;
7247;SDS011;3665;51.034;13.642;2022-10-31T13:28:12;7.97;;;5.53;;
7247;SDS011;3665;51.034;13.642;2022-10-31T13:33:53;9.77;;;5.37;;
7247;SDS011;3665;51.034;13.642;2022-10-31T14:11:29;7.83;;;5.27;;
7247;SDS011;3665;51.034;13.642;2022-10-31T14:24:14;10.93;;;5.67;;
7247;SDS011;3665;51.034;13.642;2022-10-31T14:35:46;7.00;;;5.30;;
7247;SDS011;3665;51.034;13.642;2022-10-31T15:04:14;20.70;;;12.90;;
7247;SDS011;3665;51.034;13.642;2022-10-31T15:09:22;19.93;;;12.87;;
7247;SDS011;3665;51.034;13.642;2022-10-31T15:14:48;29.33;;;19.53;;
7247;SDS011;3665;51.034;13.642;2022-10-31T15:25:45;15.10;;;10.13;;
7247;SDS011;3665;51.034;13.642;2022-10-31T15:37:18;15.87;;;8.73;;
7247;SDS011;3665;51.034;13.642;2022-10-31T15:48:50;10.87;;;7.30;;
7247;SDS011;3665;51.034;13.642;2022-10-31T15:54:17;12.33;;;7.47;;
7247;SDS011;3665;51.034;13.642;2022-10-31T15:59:18;10.50;;;6.93;;
7247;SDS011;3665;51.034;13.642;2022-10-31T16:04:47;14.93;;;10.03;;
7247;SDS011;3665;51.034;13.642;2022-10-31T16:27:47;14.20;;;8.87;;
7247;SDS011;3665;51.034;13.642;2022-10-31T16:38:08;16.97;;;12.07;;
7247;SDS011;3665;51.034;13.642;2022-10-31T16:43:26;19.27;;;12.10;;
7247;SDS011;3665;51.034;13.642;2022-10-31T16:54:09;21.23;;;15.10;;
7247;SDS011;3665;51.034;13.642;2022-10-31T17:16:31;17.10;;;14.80;;
7247;SDS011;3665;51.034;13.642;2022-10-31T17:21:35;33.93;;;24.63;;
7247;SDS011;3665;51.034;13.642;2022-10-31T17:27:21;28.97;;;22.53;;
7247;SDS011;3665;51.034;13.642;2022-10-31T17:32:22;29.73;;;21.90;;
7247;SDS011;3665;51.034;13.642;2022-10-31T17:38:31;28.80;;;20.63;;
7247;SDS011;3665;51.034;13.642;2022-10-31T17:49:25;31.70;;;21.23;;
7247;SDS011;3665;51.034;13.642;2022-10-31T17:54:22;30.27;;;19.13;;
7247;SDS011;3665;51.034;13.642;2022-10-31T17:59:10;33.17;;;20.63;;
7247;SDS011;3665;51.034;13.642;2022-10-31T18:04:15;20.80;;;15.60;;
7247;SDS011;3665;51.034;13.642;2022-10-31T18:09:04;15.13;;;11.60;;
7247;SDS011;3665;51.034;13.642;2022-10-31T18:13:55;10.47;;;9.20;;
7247;SDS011;3665;51.034;13.642;2022-10-31T18:18:55;10.50;;;8.37;;
7247;SDS011;3665;51.034;13.642;2022-10-31T18:49:08;11.87;;;9.03;;
7247;SDS011;3665;51.034;13.642;2022-10-31T18:54:08;11.73;;;8.77;;
7247;SDS011;3665;51.034;13.642;2022-10-31T19:05:25;13.03;;;10.07;;
7247;SDS011;3665;51.034;13.642;2022-10-31T19:17:36;12.67;;;11.07;;
7247;SDS011;3665;51.034;13.642;2022-10-31T19:22:21;15.10;;;11.03;;
7247;SDS011;3665;51.034;13.642;2022-10-31T19:34:24;12.20;;;10.10;;
7247;SDS011;3665;51.034;13.642;2022-10-31T19:39:17;14.63;;;10.23;;
7247;SDS011;3665;51.034;13.642;2022-10-31T19:45:52;13.40;;;9.33;;
7247;SDS011;3665;51.034;13.642;2022-10-31T20:09:22;17.73;;;10.93;;
7247;SDS011;3665;51.034;13.642;2022-10-31T20:41:39;19.77;;;14.80;;
7247;SDS011;3665;51.034;13.642;2022-10-31T21:09:49;13.23;;;8.80;;
7247;SDS011;3665;51.034;13.642;2022-10-31T21:14:41;10.87;;;8.83;;
7247;SDS011;3665;51.034;13.642;2022-10-31T21:19:25;12.83;;;8.20;;
7247;SDS011;3665;51.034;13.642;2022-10-31T21:37:51;9.57;;;7.23;;
7247;SDS011;3665;51.034;13.642;2022-10-31T21:49:42;17.07;;;7.77;;
7247;SDS011;3665;51.034;13.642;2022-10-31T22:06:07;15.37;;;10.77;;
7247;SDS011;3665;51.034;13.642;2022-10-31T22:12:02;20.23;;;12.33;;
7247;SDS011;3665;51.034;13.642;2022-10-31T22:29:27;16.17;;;13.50;;
7247;SDS011;3665;51.034;13.642;2022-10-31T22:39:27;16.50;;;14.60;;
7247;SDS011;3665;51.034;13.642;2022-10-31T22:45:37;18.87;;;12.83;;
7247;SDS011;3665;51.034;13.642;2022-10-31T22:50:21;18.20;;;12.73;;
7247;SDS011;3665;51.034;13.642;2022-10-31T22:55:10;16.67;;;12.67;;
7247;SDS011;3665;51.034;13.642;2022-10-31T22:59:59;15.13;;;12.77;;
7247;SDS011;3665;51.034;13.642;2022-10-31T23:10:39;17.17;;;13.43;;
7247;SDS011;3665;51.034;13.642;2022-10-31T23:15:26;16.37;;;14.53;;
7247;SDS011;3665;51.034;13.642;2022-10-31T23:20:13;17.43;;;14.47;;
7247;SDS011;3665;51.034;13.642;2022-10-31T23:25:01;18.40;;;13.07;;
7247;SDS011;3665;51.034;13.642;2022-10-31T23:29:51;18.10;;;14.27;;
7247;SDS011;3665;51.034;13.642;2022-10-31T23:34:37;21.13;;;14.17;;
7247;SDS011;3665;51.034;13.642;2022-10-31T23:44:30;16.33;;;12.93;;
7247;SDS011;3665;51.034;13.642;2022-10-31T23:49:17;16.93;;;12.93;;
7247;SDS011;3665;51.034;13.642;2022-10-31T23:54:07;16.30;;;12.90;;
7247;SDS011;3665;51.034;13.642;2022-10-31T23:58:54;18.47;;;13.37;;
